createdAt,value
2023-02-21T00:00:04.039Z,23.20
2023-02-21T00:02:58.544Z,22.63
2023-02-21T00:05:44.893Z,22.35
2023-02-21T00:08:31.739Z,23.25
2023-02-21T00:11:22.883Z,20.95
2023-02-21T00:14:10.823Z,20.20
2023-02-21T00:16:57.054Z,19.35
2023-02-21T00:19:43.892Z,21.58
2023-02-21T00:22:30.698Z,20.05
2023-02-21T00:25:17.200Z,18.02
2023-02-21T00:28:03.473Z,22.70
2023-02-21T00:30:50.167Z,30.30
2023-02-21T00:33:36.415Z,22.65
2023-02-21T00:36:23.792Z,19.33
2023-02-21T00:39:09.990Z,13.80
2023-02-21T00:41:56.242Z,12.23
2023-02-21T00:44:42.382Z,25.33
2023-02-21T00:47:28.729Z,28.08
2023-02-21T00:50:15.038Z,27.02
2023-02-21T00:53:01.830Z,40.40
2023-02-21T00:55:48.376Z,31.88
2023-02-21T00:58:35.182Z,34.88
2023-02-21T01:01:22.033Z,23.08
2023-02-21T01:04:08.626Z,21.67
2023-02-21T01:06:54.872Z,20.98
2023-02-21T01:09:41.617Z,22.58
2023-02-21T01:12:28.097Z,21.27
2023-02-21T01:15:16.271Z,25.98
2023-02-21T01:18:02.945Z,29.15
2023-02-21T01:20:49.398Z,26.98
2023-02-21T01:23:35.764Z,27.65
2023-02-21T01:26:23.383Z,24.48
2023-02-21T01:29:09.886Z,40.40
2023-02-21T01:31:56.124Z,75.38
2023-02-21T01:34:42.345Z,38.25
2023-02-21T01:38:01.006Z,23.45
2023-02-21T01:41:01.189Z,19.38
2023-02-21T01:43:48.697Z,19.75
2023-02-21T01:46:39.192Z,19.80
2023-02-21T01:49:35.038Z,23.23
2023-02-21T01:52:23.939Z,23.88
2023-02-21T01:55:14.022Z,27.35
2023-02-21T01:58:04.669Z,31.05
2023-02-21T02:00:51.212Z,26.75
2023-02-21T02:03:39.426Z,42.25
2023-02-21T02:06:31.211Z,44.30
2023-02-21T02:09:38.806Z,43.60
2023-02-21T02:12:28.330Z,25.33
2023-02-21T02:15:22.540Z,32.65
2023-02-21T02:18:13.709Z,31.40
2023-02-21T02:21:06.441Z,29.73
2023-02-21T02:24:11.723Z,27.50
2023-02-21T02:26:59.783Z,27.13
2023-02-21T02:29:34.642Z,21.92
2023-02-21T02:32:02.759Z,22.55
2023-02-21T02:34:56.896Z,21.70
2023-02-21T02:37:48.398Z,21.58
2023-02-21T02:40:44.644Z,23.52
2023-02-21T02:43:19.923Z,21.50
2023-02-21T02:46:26.699Z,17.20
2023-02-21T02:49:01.082Z,20.67
2023-02-21T02:51:29.968Z,20.02
2023-02-21T02:54:01.409Z,21.58
2023-02-21T02:58:00.905Z,29.33
2023-02-21T03:00:32.140Z,28.42
2023-02-21T03:03:31.895Z,27.08
2023-02-21T03:06:17.463Z,20.25
2023-02-21T03:08:54.376Z,17.35
2023-02-21T03:11:25.110Z,22.45
2023-02-21T03:14:20.339Z,22.77
2023-02-21T03:17:00.626Z,23.05
2023-02-21T03:19:33.471Z,22.83
2023-02-21T03:22:07.991Z,20.55
2023-02-21T03:24:39.477Z,24.33
2023-02-21T03:27:09.849Z,18.40
2023-02-21T03:29:56.695Z,20.83
2023-02-21T03:32:34.963Z,17.83
2023-02-21T03:35:04.884Z,20.00
2023-02-21T03:37:37.946Z,24.00
2023-02-21T03:40:10.278Z,25.48
2023-02-21T03:42:38.496Z,23.95
2023-02-21T03:45:07.101Z,20.85
2023-02-21T03:47:35.187Z,23.33
2023-02-21T03:50:05.232Z,24.25
2023-02-21T03:52:35.763Z,21.20
2023-02-21T03:55:04.590Z,29.67
2023-02-21T03:57:32.732Z,21.00
2023-02-21T04:00:01.510Z,24.77
2023-02-21T04:02:32.641Z,19.75
2023-02-21T04:05:00.649Z,25.20
2023-02-21T04:07:28.914Z,26.90
2023-02-21T04:09:57.103Z,24.98
2023-02-21T04:12:34.893Z,22.67
2023-02-21T04:15:03.443Z,19.92
2023-02-21T04:17:31.433Z,23.15
2023-02-21T04:20:00.958Z,18.83
2023-02-21T04:22:29.108Z,21.75
2023-02-21T04:24:57.471Z,19.75
2023-02-21T04:27:27.563Z,26.83
2023-02-21T04:29:57.639Z,45.88
2023-02-21T04:32:25.810Z,54.25
2023-02-21T04:34:54.307Z,44.75
2023-02-21T04:37:22.371Z,39.03
2023-02-21T04:39:50.905Z,40.70
2023-02-21T04:42:19.385Z,46.65
2023-02-21T04:44:59.468Z,35.22
2023-02-21T04:47:29.883Z,32.58
2023-02-21T04:49:58.884Z,31.73
2023-02-21T04:52:27.429Z,25.67
2023-02-21T04:54:55.677Z,22.92
2023-02-21T04:57:23.756Z,29.80
2023-02-21T05:00:00.208Z,29.23
2023-02-21T05:02:28.631Z,31.25
2023-02-21T05:04:56.505Z,29.38
2023-02-21T05:07:24.464Z,33.50
2023-02-21T05:09:52.485Z,34.75
2023-02-21T05:12:20.329Z,31.40
2023-02-21T05:14:48.256Z,37.90
2023-02-21T05:17:16.303Z,65.30
2023-02-21T05:19:46.545Z,82.38
2023-02-21T05:22:14.575Z,65.40
2023-02-21T05:24:42.861Z,62.10
2023-02-21T05:27:11.834Z,69.15
2023-02-21T05:29:39.738Z,97.50
2023-02-21T05:32:07.856Z,54.90
2023-02-21T05:34:35.793Z,75.55
2023-02-21T05:37:03.874Z,61.42
2023-02-21T05:39:31.958Z,55.60
2023-02-21T05:42:00.041Z,54.72
2023-02-21T05:44:28.066Z,40.80
2023-02-21T05:46:56.121Z,43.33
2023-02-21T05:49:24.678Z,50.15
2023-02-21T05:51:53.931Z,50.00
2023-02-21T05:54:22.774Z,53.38
2023-02-21T05:56:52.737Z,50.40
2023-02-21T05:59:21.948Z,52.60
2023-02-21T06:01:50.494Z,90.97
2023-02-21T06:04:19.204Z,199.20
2023-02-21T06:06:47.168Z,155.05
2023-02-21T06:09:15.768Z,68.05
2023-02-21T06:11:43.770Z,72.80
2023-02-21T06:14:18.340Z,82.50
2023-02-21T06:16:46.955Z,64.80
2023-02-21T06:19:16.971Z,57.55
2023-02-21T06:21:46.104Z,49.70
2023-02-21T06:24:14.404Z,54.05
2023-02-21T06:26:42.732Z,70.40
2023-02-21T06:29:11.918Z,36.53
2023-02-21T06:31:40.067Z,33.10
2023-02-21T06:34:08.208Z,33.58
2023-02-21T06:36:36.157Z,34.38
2023-02-21T06:39:04.584Z,24.33
2023-02-21T06:41:32.589Z,19.98
2023-02-21T06:44:00.669Z,23.80
2023-02-21T06:46:30.763Z,21.50
2023-02-21T06:48:59.247Z,19.17
2023-02-21T06:51:29.976Z,31.00
2023-02-21T06:53:58.988Z,29.85
2023-02-21T06:56:27.490Z,30.63
2023-02-21T06:58:55.723Z,16.65
2023-02-21T07:01:29.210Z,12.70
2023-02-21T07:03:59.119Z,15.25
2023-02-21T07:06:29.591Z,18.63
2023-02-21T07:08:58.134Z,24.77
2023-02-21T07:11:26.423Z,17.30
2023-02-21T07:13:56.957Z,16.20
2023-02-21T07:16:25.231Z,17.80
2023-02-21T07:18:54.216Z,18.75
2023-02-21T07:21:22.401Z,17.63
2023-02-21T07:23:50.305Z,16.77
2023-02-21T07:26:18.777Z,16.98
2023-02-21T07:28:50.176Z,19.13
2023-02-21T07:31:19.600Z,20.00
2023-02-21T07:33:47.880Z,17.52
2023-02-21T07:36:16.525Z,13.25
2023-02-21T07:38:44.487Z,13.35
2023-02-21T07:41:15.542Z,18.90
2023-02-21T07:43:43.756Z,13.82
2023-02-21T07:46:13.443Z,14.80
2023-02-21T07:48:41.913Z,14.25
2023-02-21T07:51:10.668Z,12.20
2023-02-21T07:53:38.469Z,15.52
2023-02-21T07:56:06.781Z,16.95
2023-02-21T07:58:37.693Z,16.45
2023-02-21T08:01:07.816Z,18.25
2023-02-21T08:03:38.108Z,14.88
2023-02-21T08:06:06.138Z,15.75
2023-02-21T08:08:34.003Z,14.70
2023-02-21T08:11:02.379Z,16.40
2023-02-21T08:13:30.608Z,13.13
2023-02-21T08:15:58.591Z,11.88
2023-02-21T08:18:26.706Z,13.70
2023-02-21T08:20:57.005Z,16.92
2023-02-21T08:23:25.120Z,22.13
2023-02-21T08:25:53.151Z,22.88
2023-02-21T08:28:21.050Z,16.70
2023-02-21T08:30:49.035Z,14.50
2023-02-21T08:33:16.924Z,11.82
2023-02-21T08:35:44.965Z,14.25
2023-02-21T08:38:13.053Z,14.07
2023-02-21T08:40:41.180Z,15.02
2023-02-21T08:43:09.267Z,6.82
2023-02-21T08:45:37.546Z,4.00
2023-02-21T08:48:05.516Z,5.00
2023-02-21T08:50:33.649Z,4.85
2023-02-21T08:53:01.714Z,4.30
2023-02-21T08:55:29.671Z,6.30
2023-02-21T08:57:57.574Z,9.65
2023-02-21T09:00:29.801Z,4.32
2023-02-21T09:03:00.124Z,11.48
2023-02-21T09:05:30.265Z,7.15
2023-02-21T09:08:11.674Z,4.47
2023-02-21T09:10:47.832Z,4.22
2023-02-21T09:13:15.999Z,7.60
2023-02-21T09:15:44.001Z,4.22
2023-02-21T09:18:13.138Z,5.47
2023-02-21T09:20:42.625Z,4.38
2023-02-21T09:23:10.608Z,4.53
2023-02-21T09:25:38.734Z,5.60
2023-02-21T09:28:06.965Z,4.57
2023-02-21T09:30:35.013Z,4.57
2023-02-21T09:33:03.060Z,3.75
2023-02-21T09:35:31.363Z,4.50
2023-02-21T09:40:44.929Z,5.68
2023-02-21T09:43:17.343Z,4.75
2023-02-21T09:45:46.610Z,5.07
2023-02-21T09:48:18.637Z,9.27
2023-02-21T09:50:50.378Z,2.78
2023-02-21T09:53:26.360Z,4.47
2023-02-21T09:56:00.128Z,3.42
2023-02-21T09:58:28.370Z,3.55
2023-02-21T10:01:02.800Z,4.53
2023-02-21T10:03:51.195Z,4.53
2023-02-21T10:06:34.829Z,4.75
2023-02-21T10:09:25.724Z,5.80
2023-02-21T10:12:26.670Z,4.35
2023-02-21T10:15:30.326Z,5.18
2023-02-21T10:18:23.012Z,6.47
2023-02-21T10:20:55.165Z,3.22
2023-02-21T10:23:31.647Z,4.72
2023-02-21T10:26:09.569Z,4.70
2023-02-21T10:28:39.051Z,4.43
2023-02-21T10:31:17.174Z,3.75
2023-02-21T10:33:45.675Z,11.13
2023-02-21T10:36:20.341Z,9.43
2023-02-21T10:38:57.441Z,3.70
2023-02-21T10:41:29.716Z,12.02
2023-02-21T10:44:05.990Z,16.58
2023-02-21T10:46:37.607Z,8.52
2023-02-21T10:49:24.747Z,28.50
2023-02-21T10:52:25.774Z,3.92
2023-02-21T10:55:31.333Z,60.00
2023-02-21T10:58:11.799Z,14.13
2023-02-21T11:00:48.696Z,9.35
2023-02-21T11:03:19.519Z,4.43
2023-02-21T11:05:52.143Z,5.00
2023-02-21T11:08:41.810Z,4.75
2023-02-21T11:11:11.277Z,21.40
2023-02-21T11:13:39.384Z,15.80
2023-02-21T11:16:17.949Z,6.93
2023-02-21T11:18:46.592Z,11.10
2023-02-21T11:21:19.777Z,5.13
2023-02-21T11:24:02.860Z,3.78
2023-02-21T11:26:52.701Z,5.28
2023-02-21T11:29:25.988Z,4.13
2023-02-21T11:31:55.734Z,11.23
2023-02-21T11:34:29.922Z,6.63
2023-02-21T11:37:04.045Z,12.63
2023-02-21T11:39:33.959Z,4.60
2023-02-21T11:42:07.079Z,5.03
2023-02-21T11:44:42.375Z,4.40
2023-02-21T11:47:19.575Z,14.68
2023-02-21T11:50:01.921Z,20.85
2023-02-21T11:52:45.675Z,3.63
2023-02-21T11:55:17.648Z,3.53
2023-02-21T11:58:02.073Z,5.15
2023-02-21T12:00:40.744Z,5.90
2023-02-21T12:03:27.943Z,4.68
2023-02-21T12:06:15.894Z,7.40
2023-02-21T12:08:55.763Z,5.03
2023-02-21T12:11:49.444Z,4.93
2023-02-21T12:14:45.517Z,2.70
2023-02-21T12:17:19.336Z,79.60
2023-02-21T12:19:53.446Z,3.70
2023-02-21T12:22:48.535Z,9.77
2023-02-21T12:25:54.906Z,8.70
2023-02-21T12:28:33.669Z,6.80
2023-02-21T12:31:18.208Z,3.35
2023-02-21T12:33:58.529Z,4.47
2023-02-21T12:37:07.578Z,4.72
2023-02-21T12:39:47.336Z,4.22
2023-02-21T12:42:33.940Z,6.28
2023-02-21T12:45:19.545Z,20.73
2023-02-21T12:48:38.246Z,9.00
2023-02-21T12:51:16.419Z,3.85
2023-02-21T12:53:55.280Z,6.13
2023-02-21T12:56:59.906Z,2.72
2023-02-21T12:59:33.544Z,3.35
2023-02-21T13:02:16.959Z,3.25
2023-02-21T13:04:54.674Z,2.38
2023-02-21T13:07:37.120Z,4.20
2023-02-21T13:10:25.142Z,3.17
2023-02-21T13:13:18.478Z,3.40
2023-02-21T13:15:48.934Z,4.05
2023-02-21T13:18:23.821Z,3.83
2023-02-21T13:21:00.509Z,7.63
2023-02-21T13:23:51.847Z,4.75
2023-02-21T13:27:11.365Z,2.63
2023-02-21T13:29:42.742Z,5.55
2023-02-21T13:32:17.764Z,4.18
2023-02-21T13:34:59.359Z,7.72
2023-02-21T13:37:33.072Z,5.85
2023-02-21T13:40:10.205Z,4.90
2023-02-21T13:42:39.350Z,4.57
2023-02-21T13:45:13.572Z,5.43
2023-02-21T13:47:53.531Z,4.70
2023-02-21T13:51:02.789Z,2.95
2023-02-21T13:53:34.278Z,7.63
2023-02-21T13:56:08.197Z,7.68
2023-02-21T13:58:40.357Z,5.50
2023-02-21T14:01:24.421Z,5.13
2023-02-21T14:03:54.978Z,8.30
2023-02-21T14:06:32.809Z,2.70
2023-02-21T14:09:18.673Z,15.35
2023-02-21T14:11:52.343Z,6.28
2023-02-21T14:14:30.247Z,16.52
2023-02-21T14:17:02.534Z,6.15
2023-02-21T14:19:42.082Z,5.25
2023-02-21T14:22:24.216Z,7.85
2023-02-21T14:25:05.531Z,7.88
2023-02-21T14:27:36.492Z,8.20
2023-02-21T14:30:11.148Z,67.82
2023-02-21T14:35:16.809Z,10.40
2023-02-21T14:38:08.899Z,22.10
2023-02-21T14:40:44.087Z,14.95
2023-02-21T14:43:15.426Z,15.95
2023-02-21T14:46:19.524Z,98.32
2023-02-21T14:49:25.201Z,6.97
2023-02-21T14:51:59.541Z,16.95
2023-02-21T14:55:01.704Z,14.45
2023-02-21T14:58:07.486Z,5.88
2023-02-21T15:01:00.797Z,12.43
2023-02-21T15:03:38.631Z,23.92
2023-02-21T15:06:20.094Z,16.42
2023-02-21T15:08:50.604Z,24.67
2023-02-21T15:11:30.249Z,16.00
2023-02-21T15:14:25.853Z,18.60
2023-02-21T15:17:11.947Z,17.95
2023-02-21T15:19:40.676Z,11.38
2023-02-21T15:25:08.299Z,17.73
2023-02-21T15:27:51.022Z,17.58
2023-02-21T15:30:29.478Z,21.65
2023-02-21T15:33:07.140Z,23.50
2023-02-21T15:35:44.944Z,23.67
2023-02-21T15:38:22.972Z,27.25
2023-02-21T15:40:56.411Z,50.60
2023-02-21T15:43:39.317Z,93.75
2023-02-21T15:46:11.810Z,151.30
2023-02-21T15:48:40.084Z,143.13
2023-02-21T15:51:11.834Z,134.50
2023-02-21T15:53:39.942Z,101.93
2023-02-21T15:56:24.298Z,67.38
2023-02-21T15:59:26.428Z,82.30
2023-02-21T16:02:14.426Z,53.53
2023-02-21T16:04:46.097Z,69.82
2023-02-21T16:07:17.092Z,60.80
2023-02-21T16:10:00.497Z,70.00
2023-02-21T16:12:37.980Z,62.92
2023-02-21T16:15:19.841Z,89.13
2023-02-21T16:17:57.787Z,54.88
2023-02-21T16:20:32.595Z,107.45
2023-02-21T16:23:26.629Z,54.13
2023-02-21T16:26:21.401Z,64.72
2023-02-21T16:28:49.500Z,63.47
2023-02-21T16:31:30.440Z,72.88
2023-02-21T16:33:59.509Z,34.42
2023-02-21T16:36:32.150Z,21.90
2023-02-21T16:39:00.648Z,17.33
2023-02-21T16:41:29.057Z,15.07
2023-02-21T16:43:57.908Z,16.90
2023-02-21T16:46:30.067Z,16.05
2023-02-21T16:49:01.984Z,29.85
2023-02-21T16:51:34.926Z,22.33
2023-02-21T16:54:03.774Z,14.50
2023-02-21T16:56:31.691Z,21.08
2023-02-21T16:58:59.817Z,35.28
2023-02-21T17:01:30.039Z,82.38
2023-02-21T17:03:57.953Z,69.95
2023-02-21T17:06:27.880Z,72.68
2023-02-21T17:08:55.827Z,40.08
2023-02-21T17:11:23.865Z,30.00
2023-02-21T17:13:52.056Z,30.30
2023-02-21T17:16:20.418Z,59.72
2023-02-21T17:18:48.402Z,57.17
2023-02-21T17:21:16.590Z,33.38
2023-02-21T17:23:44.780Z,31.63
2023-02-21T17:26:13.350Z,27.75
2023-02-21T17:28:41.358Z,41.70
2023-02-21T17:31:09.305Z,48.97
2023-02-21T17:33:37.404Z,51.63
2023-02-21T17:36:05.656Z,47.42
2023-02-21T17:38:33.969Z,60.00
2023-02-21T17:41:02.005Z,21.38
2023-02-21T17:43:31.070Z,223.70
2023-02-21T17:45:59.052Z,70.50
2023-02-21T17:48:27.209Z,47.65
2023-02-21T17:50:55.352Z,76.35
2023-02-21T17:53:23.233Z,50.47
2023-02-21T17:55:51.195Z,45.90
2023-02-21T17:58:19.342Z,34.72
2023-02-21T18:00:47.290Z,60.03
2023-02-21T18:03:15.258Z,87.25
2023-02-21T18:05:43.131Z,70.20
2023-02-21T18:08:10.984Z,41.85
2023-02-21T18:10:39.016Z,93.95
2023-02-21T18:13:07.018Z,98.20
2023-02-21T18:15:34.880Z,60.50
2023-02-21T18:18:07.061Z,70.63
2023-02-21T18:20:36.125Z,79.88
2023-02-21T18:23:06.699Z,58.95
2023-02-21T18:25:35.981Z,54.55
2023-02-21T18:28:04.961Z,28.48
2023-02-21T18:33:00.692Z,72.85
2023-02-21T18:35:28.690Z,22.55
2023-02-21T18:37:56.755Z,10.27
2023-02-21T18:40:35.214Z,45.58
2023-02-21T18:43:08.441Z,10.82
2023-02-21T18:45:36.759Z,10.27
2023-02-21T18:48:05.045Z,10.15
2023-02-21T18:50:32.910Z,25.52
2023-02-21T18:53:02.386Z,9.85
2023-02-21T18:55:31.120Z,10.00
2023-02-21T18:57:59.829Z,10.70
2023-02-21T19:00:29.061Z,12.75
2023-02-21T19:02:57.249Z,43.45
2023-02-21T19:05:26.007Z,57.78
2023-02-21T19:07:54.986Z,26.20
2023-02-21T19:10:25.356Z,14.45
2023-02-21T19:12:54.242Z,24.10
2023-02-21T19:15:22.811Z,123.80
2023-02-21T19:17:51.563Z,186.60
2023-02-21T19:20:20.326Z,155.90
2023-02-21T19:22:48.806Z,32.30
2023-02-21T19:25:17.835Z,15.75
2023-02-21T19:27:46.636Z,13.60
2023-02-21T19:30:17.676Z,9.40
2023-02-21T19:32:46.577Z,13.60
2023-02-21T19:35:15.029Z,10.40
2023-02-21T19:37:43.451Z,8.88
2023-02-21T19:40:12.424Z,7.55
2023-02-21T19:42:40.994Z,10.82
2023-02-21T19:45:09.558Z,15.13
2023-02-21T19:47:38.185Z,43.13
2023-02-21T19:50:07.355Z,41.10
2023-02-21T19:52:35.786Z,51.42
2023-02-21T19:55:05.206Z,34.53
2023-02-21T19:57:33.964Z,52.20
2023-02-21T20:00:02.386Z,58.47
2023-02-21T20:02:33.996Z,29.75
2023-02-21T20:05:02.578Z,31.83
2023-02-21T20:07:30.555Z,21.52
2023-02-21T20:09:58.884Z,48.45
2023-02-21T20:12:26.972Z,43.72
2023-02-21T20:14:56.529Z,89.70
2023-02-21T20:17:25.392Z,93.38
2023-02-21T20:19:53.788Z,90.57
2023-02-21T20:22:22.068Z,83.40
2023-02-21T20:24:50.596Z,49.47
2023-02-21T20:27:19.320Z,68.20
2023-02-21T20:29:47.423Z,76.50
2023-02-21T20:32:18.794Z,185.65
2023-02-21T20:34:47.340Z,297.60
2023-02-21T20:37:17.321Z,186.82
2023-02-21T20:39:45.778Z,98.50
2023-02-21T20:42:14.047Z,56.47
2023-02-21T20:44:44.341Z,95.38
2023-02-21T20:47:12.709Z,42.20
2023-02-21T20:49:44.122Z,37.95
2023-02-21T20:52:12.898Z,43.25
2023-02-21T20:54:41.783Z,31.73
2023-02-21T20:57:10.404Z,21.73
2023-02-21T20:59:40.071Z,17.67
2023-02-21T21:02:09.663Z,15.95
2023-02-21T21:04:40.627Z,13.27
2023-02-21T21:07:14.275Z,18.00
2023-02-21T21:09:42.340Z,41.08
2023-02-21T21:12:14.679Z,118.47
2023-02-21T21:14:44.524Z,149.48
2023-02-21T21:17:16.566Z,167.07
2023-02-21T21:19:48.144Z,106.78
2023-02-21T21:22:21.213Z,77.57
2023-02-21T21:24:51.784Z,74.13
2023-02-21T21:27:22.469Z,86.53
2023-02-21T21:29:52.667Z,97.25
2023-02-21T21:32:25.373Z,86.97
2023-02-21T21:34:56.910Z,54.45
2023-02-21T21:37:29.085Z,38.67
2023-02-21T21:39:57.883Z,47.80
2023-02-21T21:42:28.102Z,47.50
2023-02-21T21:44:57.179Z,22.45
2023-02-21T21:47:28.109Z,15.32
2023-02-21T21:49:56.173Z,23.88
2023-02-21T21:52:24.880Z,27.83
2023-02-21T21:54:52.782Z,55.17
2023-02-21T21:57:23.012Z,30.88
2023-02-21T21:59:51.199Z,32.60
2023-02-21T22:02:19.632Z,44.78
2023-02-21T22:04:48.346Z,89.72
2023-02-21T22:07:16.199Z,75.30
2023-02-21T22:09:44.292Z,85.63
2023-02-21T22:12:17.157Z,51.63
2023-02-21T22:14:45.387Z,48.10
2023-02-21T22:17:13.240Z,60.33
2023-02-21T22:19:41.169Z,52.25
2023-02-21T22:22:09.206Z,17.73
2023-02-21T22:24:40.740Z,20.95
2023-02-21T22:27:09.672Z,16.13
2023-02-21T22:29:37.523Z,98.07
2023-02-21T22:32:08.401Z,35.95
2023-02-21T22:34:36.499Z,36.60
2023-02-21T22:37:04.477Z,37.53
2023-02-21T22:39:32.349Z,33.55
2023-02-21T22:42:00.356Z,25.58
2023-02-21T22:44:28.403Z,62.80
2023-02-21T22:46:59.641Z,54.58
2023-02-21T22:49:27.902Z,55.67
2023-02-21T22:51:57.972Z,82.10
2023-02-21T22:54:26.672Z,71.43
2023-02-21T22:57:04.035Z,54.83
2023-02-21T22:59:35.631Z,38.22
2023-02-21T23:02:04.184Z,45.90
2023-02-21T23:04:36.740Z,40.13
2023-02-21T23:07:06.067Z,37.33
2023-02-21T23:09:37.309Z,32.33
2023-02-21T23:12:06.293Z,37.55
2023-02-21T23:14:35.310Z,31.02
2023-02-21T23:17:03.462Z,35.22
2023-02-21T23:19:32.438Z,42.47
2023-02-21T23:22:00.510Z,42.08
2023-02-21T23:24:28.566Z,41.80
2023-02-21T23:26:56.487Z,42.22
2023-02-21T23:29:26.035Z,32.28
2023-02-21T23:34:41.193Z,62.20
2023-02-21T23:37:12.837Z,41.67
2023-02-21T23:39:42.167Z,32.72
2023-02-21T23:42:11.399Z,29.63
2023-02-21T23:47:07.084Z,30.08
2023-02-21T23:49:34.873Z,33.75
2023-02-21T23:52:02.862Z,27.08
2023-02-21T23:54:31.058Z,24.15
2023-02-21T23:57:00.955Z,26.05
2023-02-21T23:59:29.309Z,45.40
